createdAt,value
2022-11-21T00:00:51.424Z,32.50
2022-11-21T00:03:18.759Z,26.37
2022-11-21T00:05:49.483Z,30.07
2022-11-21T00:08:18.903Z,27.57
2022-11-21T00:10:46.391Z,26.80
2022-11-21T00:13:22.066Z,27.23
2022-11-21T00:15:48.688Z,33.23
2022-11-21T00:18:15.915Z,28.57
2022-11-21T00:20:43.974Z,34.43
2022-11-21T00:23:11.785Z,26.87
2022-11-21T00:25:39.025Z,28.37
2022-11-21T00:28:06.440Z,28.53
2022-11-21T00:30:33.198Z,27.33
2022-11-21T00:33:00.125Z,31.27
2022-11-21T00:35:27.077Z,29.60
2022-11-21T00:37:53.769Z,29.43
2022-11-21T00:40:20.467Z,32.83
2022-11-21T00:42:47.083Z,30.73
2022-11-21T00:45:13.821Z,30.00
2022-11-21T00:47:40.530Z,25.87
2022-11-21T00:50:07.460Z,27.03
2022-11-21T00:52:34.346Z,33.67
2022-11-21T00:55:01.030Z,31.03
2022-11-21T00:57:27.687Z,28.93
2022-11-21T00:59:54.357Z,29.33
2022-11-21T01:02:21.180Z,29.63
2022-11-21T01:04:47.825Z,29.93
2022-11-21T01:07:14.926Z,29.80
2022-11-21T01:09:41.625Z,29.43
2022-11-21T01:12:08.379Z,29.60
2022-11-21T01:14:35.097Z,28.90
2022-11-21T01:17:01.800Z,27.50
2022-11-21T01:19:28.466Z,28.53
2022-11-21T01:21:55.125Z,30.47
2022-11-21T01:24:21.737Z,28.63
2022-11-21T01:26:50.849Z,29.83
2022-11-21T01:29:17.827Z,27.40
2022-11-21T01:31:44.517Z,29.37
2022-11-21T01:34:11.335Z,26.33
2022-11-21T01:36:38.001Z,28.90
2022-11-21T01:39:07.208Z,28.70
2022-11-21T01:41:39.407Z,28.77
2022-11-21T01:44:24.748Z,28.47
2022-11-21T01:46:52.990Z,25.77
2022-11-21T01:49:30.486Z,29.70
2022-11-21T01:52:00.789Z,30.00
2022-11-21T01:54:30.615Z,28.50
2022-11-21T01:57:21.968Z,28.13
2022-11-21T01:59:50.960Z,28.40
2022-11-21T02:02:21.342Z,25.70
2022-11-21T02:04:50.044Z,28.00
2022-11-21T02:07:19.184Z,28.57
2022-11-21T02:09:48.597Z,28.20
2022-11-21T02:12:22.972Z,26.23
2022-11-21T02:14:50.111Z,29.10
2022-11-21T02:17:19.213Z,27.17
2022-11-21T02:19:57.969Z,29.07
2022-11-21T02:22:36.582Z,29.17
2022-11-21T02:25:27.884Z,29.23
2022-11-21T02:28:02.027Z,27.57
2022-11-21T02:30:30.810Z,29.42
2022-11-21T02:32:57.794Z,29.17
2022-11-21T02:35:24.778Z,28.97
2022-11-21T02:38:12.185Z,28.17
2022-11-21T02:40:44.035Z,28.23
2022-11-21T02:43:23.229Z,31.10
2022-11-21T02:45:50.106Z,31.00
2022-11-21T02:48:16.763Z,26.30
2022-11-21T02:50:46.055Z,28.60
2022-11-21T02:53:15.927Z,26.55
2022-11-21T02:55:43.586Z,28.58
2022-11-21T02:58:11.138Z,32.00
2022-11-21T03:00:39.869Z,30.47
2022-11-21T03:03:06.668Z,32.07
2022-11-21T03:05:33.890Z,28.00
2022-11-21T03:08:00.614Z,28.88
2022-11-21T03:10:27.429Z,33.10
2022-11-21T03:13:01.203Z,33.08
2022-11-21T03:15:30.878Z,30.70
2022-11-21T03:17:58.024Z,32.13
2022-11-21T03:20:25.033Z,29.17
2022-11-21T03:22:53.367Z,27.27
2022-11-21T03:25:20.422Z,32.22
2022-11-21T03:27:47.126Z,31.30
2022-11-21T03:30:13.961Z,31.83
2022-11-21T03:32:40.590Z,30.73
2022-11-21T03:35:07.664Z,31.57
2022-11-21T03:37:34.350Z,30.42
2022-11-21T03:40:01.002Z,32.95
2022-11-21T03:42:27.704Z,33.45
2022-11-21T03:44:54.395Z,34.00
2022-11-21T03:47:21.142Z,32.40
2022-11-21T03:49:47.790Z,30.85
2022-11-21T03:52:14.443Z,30.13
2022-11-21T03:54:41.081Z,35.08
2022-11-21T03:57:07.748Z,30.88
2022-11-21T03:59:34.410Z,31.50
2022-11-21T04:02:01.253Z,30.05
2022-11-21T04:04:28.171Z,34.03
2022-11-21T04:06:55.027Z,31.92
2022-11-21T04:09:21.750Z,31.63
2022-11-21T04:11:48.421Z,31.85
2022-11-21T04:14:15.082Z,36.83
2022-11-21T04:16:41.759Z,34.10
2022-11-21T04:19:08.433Z,32.10
2022-11-21T04:21:35.104Z,34.93
2022-11-21T04:24:01.722Z,35.07
2022-11-21T04:26:28.370Z,34.03
2022-11-21T04:28:55.022Z,33.67
2022-11-21T04:31:21.665Z,31.00
2022-11-21T04:33:48.271Z,32.77
2022-11-21T04:36:15.062Z,32.40
2022-11-21T04:38:41.681Z,32.17
2022-11-21T04:41:08.364Z,33.87
2022-11-21T04:43:35.047Z,35.13
2022-11-21T04:46:01.696Z,35.60
2022-11-21T04:48:28.433Z,35.43
2022-11-21T04:50:57.491Z,34.53
2022-11-21T04:53:24.150Z,33.80
2022-11-21T04:55:50.814Z,34.23
2022-11-21T04:58:17.470Z,35.60
2022-11-21T05:00:44.123Z,34.58
2022-11-21T05:03:10.887Z,33.70
2022-11-21T05:05:37.664Z,33.77
2022-11-21T05:08:04.615Z,35.23
2022-11-21T05:10:31.320Z,34.72
2022-11-21T05:13:18.558Z,37.10
2022-11-21T05:15:45.709Z,36.17
2022-11-21T05:18:12.499Z,33.33
2022-11-21T05:20:39.203Z,33.40
2022-11-21T05:23:05.976Z,34.63
2022-11-21T05:25:32.670Z,37.50
2022-11-21T05:27:59.436Z,35.35
2022-11-21T05:30:26.136Z,36.87
2022-11-21T05:32:52.883Z,37.45
2022-11-21T05:35:19.509Z,36.63
2022-11-21T05:37:46.297Z,33.27
2022-11-21T05:40:13.285Z,33.90
2022-11-21T05:43:01.841Z,37.60
2022-11-21T05:45:28.490Z,38.57
2022-11-21T05:47:55.141Z,35.20
2022-11-21T05:50:21.898Z,35.10
2022-11-21T05:52:48.630Z,34.87
2022-11-21T05:55:15.492Z,33.40
2022-11-21T05:57:42.139Z,38.95
2022-11-21T06:00:09.396Z,32.20
2022-11-21T06:02:54.718Z,35.65
2022-11-21T06:05:21.361Z,36.17
2022-11-21T06:07:48.080Z,34.53
2022-11-21T06:10:14.840Z,31.80
2022-11-21T06:12:41.471Z,33.53
2022-11-21T06:15:08.583Z,33.90
2022-11-21T06:17:35.231Z,34.63
2022-11-21T06:20:02.184Z,37.20
2022-11-21T06:22:28.875Z,32.00
2022-11-21T06:24:55.520Z,38.40
2022-11-21T06:27:22.174Z,36.03
2022-11-21T06:29:48.887Z,36.77
2022-11-21T06:32:15.775Z,35.23
2022-11-21T06:34:42.480Z,37.37
2022-11-21T06:37:09.089Z,40.50
2022-11-21T06:39:35.780Z,39.33
2022-11-21T06:42:02.653Z,37.23
2022-11-21T06:44:29.645Z,37.87
2022-11-21T06:46:56.555Z,39.60
2022-11-21T06:49:23.290Z,38.97
2022-11-21T06:51:49.997Z,40.27
2022-11-21T06:54:17.184Z,35.73
2022-11-21T06:56:44.108Z,37.47
2022-11-21T06:59:11.316Z,40.30
2022-11-21T07:01:38.140Z,60.23
2022-11-21T07:04:04.964Z,41.93
2022-11-21T07:06:31.699Z,58.57
2022-11-21T07:09:31.637Z,42.30
2022-11-21T07:11:45.210Z,38.47
2022-11-21T07:14:11.909Z,37.58
2022-11-21T07:16:38.628Z,39.72
2022-11-21T07:19:05.561Z,42.60
2022-11-21T07:21:32.378Z,44.17
2022-11-21T07:23:59.591Z,40.90
2022-11-21T07:26:26.256Z,41.97
2022-11-21T07:28:53.459Z,39.50
2022-11-21T07:31:20.152Z,43.17
2022-11-21T07:33:47.977Z,40.30
2022-11-21T07:36:14.915Z,39.20
2022-11-21T07:38:42.238Z,44.47
2022-11-21T07:41:09.733Z,40.20
2022-11-21T07:43:36.434Z,41.83
2022-11-21T07:46:03.111Z,37.97
2022-11-21T07:48:29.832Z,38.45
2022-11-21T07:50:56.509Z,38.63
2022-11-21T07:53:24.058Z,40.20
2022-11-21T07:55:50.718Z,43.00
2022-11-21T07:58:17.783Z,39.97
2022-11-21T08:00:44.596Z,40.10
2022-11-21T08:03:12.926Z,36.92
2022-11-21T08:05:43.994Z,37.83
2022-11-21T08:08:14.260Z,42.22
2022-11-21T08:10:43.155Z,33.53
2022-11-21T08:13:10.269Z,37.03
2022-11-21T08:15:37.389Z,38.33
2022-11-21T08:18:20.865Z,37.53
2022-11-21T08:20:47.887Z,40.80
2022-11-21T08:23:14.725Z,41.40
2022-11-21T08:25:42.513Z,42.17
2022-11-21T08:28:11.108Z,44.58
2022-11-21T08:30:39.128Z,38.47
2022-11-21T08:33:06.898Z,38.88
2022-11-21T08:35:36.140Z,41.83
2022-11-21T08:38:02.890Z,47.70
2022-11-21T08:40:31.162Z,45.28
2022-11-21T08:43:15.666Z,47.03
2022-11-21T08:45:42.302Z,50.40
2022-11-21T08:48:12.180Z,51.60
2022-11-21T08:50:39.081Z,49.83
2022-11-21T08:53:05.840Z,43.75
2022-11-21T08:55:32.522Z,42.33
2022-11-21T08:57:59.362Z,38.40
2022-11-21T09:00:26.064Z,37.55
2022-11-21T09:02:53.020Z,37.83
2022-11-21T09:05:19.802Z,37.60
2022-11-21T09:07:47.551Z,42.80
2022-11-21T09:10:14.699Z,37.92
2022-11-21T09:12:41.349Z,36.05
2022-11-21T09:15:28.990Z,36.05
2022-11-21T09:18:04.938Z,34.90
2022-11-21T09:20:33.969Z,34.67
2022-11-21T09:23:27.237Z,44.38
2022-11-21T09:25:54.288Z,36.42
2022-11-21T09:28:20.939Z,38.90
2022-11-21T09:30:47.579Z,34.88
2022-11-21T09:33:18.999Z,41.90
2022-11-21T09:35:45.626Z,37.95
2022-11-21T09:38:12.612Z,37.28
2022-11-21T09:40:44.052Z,38.92
2022-11-21T09:43:44.588Z,38.88
2022-11-21T09:46:15.293Z,41.55
2022-11-21T09:48:54.315Z,45.80
2022-11-21T09:51:22.494Z,43.13
2022-11-21T09:53:58.445Z,39.92
2022-11-21T09:56:55.276Z,45.53
2022-11-21T09:59:50.613Z,41.95
2022-11-21T10:02:20.554Z,41.15
2022-11-21T10:04:48.945Z,69.85
2022-11-21T10:07:29.176Z,41.35
2022-11-21T10:10:27.110Z,39.42
2022-11-21T10:13:18.494Z,37.47
2022-11-21T10:15:50.702Z,43.30
2022-11-21T10:19:02.793Z,50.30
2022-11-21T10:21:45.949Z,41.05
2022-11-21T10:24:31.980Z,47.80
2022-11-21T10:27:02.745Z,38.80
2022-11-21T10:29:37.768Z,36.25
2022-11-21T10:32:30.067Z,40.05
2022-11-21T10:35:01.625Z,42.63
2022-11-21T10:37:32.941Z,39.80
2022-11-21T10:40:16.102Z,38.67
2022-11-21T10:42:57.580Z,43.78
2022-11-21T10:45:24.706Z,42.58
2022-11-21T10:47:53.054Z,40.30
2022-11-21T10:50:33.596Z,41.95
2022-11-21T10:53:25.735Z,45.90
2022-11-21T10:56:06.020Z,47.28
2022-11-21T10:58:52.182Z,42.72
2022-11-21T11:01:27.719Z,41.17
2022-11-21T11:04:26.661Z,50.33
2022-11-21T11:06:52.386Z,45.92
2022-11-21T11:09:24.459Z,45.42
2022-11-21T11:11:51.472Z,52.05
2022-11-21T11:14:30.344Z,47.22
2022-11-21T11:16:57.475Z,54.90
2022-11-21T11:19:35.473Z,54.58
2022-11-21T11:22:27.169Z,49.88
2022-11-21T11:24:57.599Z,47.15
2022-11-21T11:27:28.441Z,46.92
2022-11-21T11:29:55.601Z,49.15
2022-11-21T11:32:23.146Z,53.00
2022-11-21T11:35:18.393Z,49.05
2022-11-21T11:38:03.517Z,47.97
2022-11-21T11:40:32.620Z,46.78
2022-11-21T11:43:36.241Z,51.03
2022-11-21T11:46:34.359Z,51.03
2022-11-21T11:49:52.758Z,49.17
2022-11-21T11:52:25.165Z,52.67
2022-11-21T11:54:58.253Z,49.08
2022-11-21T11:57:27.319Z,51.13
2022-11-21T12:00:39.713Z,47.80
2022-11-21T12:03:18.285Z,48.80
2022-11-21T12:05:58.639Z,53.75
2022-11-21T12:09:07.959Z,47.63
2022-11-21T12:12:09.047Z,46.70
2022-11-21T12:15:06.863Z,52.38
2022-11-21T12:18:12.278Z,49.88
2022-11-21T12:20:38.920Z,52.92
2022-11-21T12:23:07.416Z,48.58
2022-11-21T12:25:39.406Z,54.63
2022-11-21T12:28:17.485Z,53.47
2022-11-21T12:30:44.110Z,50.97
2022-11-21T12:33:23.307Z,47.58
2022-11-21T12:36:25.239Z,40.80
2022-11-21T12:38:58.220Z,36.80
2022-11-21T12:42:15.252Z,33.38
2022-11-21T12:44:47.744Z,40.53
2022-11-21T12:48:14.330Z,37.55
2022-11-21T12:51:10.805Z,38.47
2022-11-21T12:54:03.749Z,35.65
2022-11-21T12:56:51.205Z,35.60
2022-11-21T12:59:19.564Z,31.27
2022-11-21T13:02:01.210Z,34.58
2022-11-21T13:04:35.266Z,35.72
2022-11-21T13:07:03.807Z,35.00
2022-11-21T13:09:38.228Z,35.35
2022-11-21T13:12:15.698Z,33.78
2022-11-21T13:15:04.989Z,35.65
2022-11-21T13:17:31.741Z,35.25
2022-11-21T13:20:18.417Z,32.47
2022-11-21T13:22:45.093Z,31.83
2022-11-21T13:25:30.273Z,36.40
2022-11-21T13:28:19.745Z,37.45
2022-11-21T13:30:54.072Z,33.50
2022-11-21T13:33:36.199Z,34.22
2022-11-21T13:36:06.769Z,35.88
2022-11-21T13:38:53.848Z,35.97
2022-11-21T13:41:54.282Z,33.90
2022-11-21T13:44:32.901Z,34.20
2022-11-21T13:47:02.604Z,33.80
2022-11-21T13:49:44.422Z,30.42
2022-11-21T13:52:11.052Z,31.85
2022-11-21T13:55:18.006Z,28.55
2022-11-21T13:58:02.700Z,32.78
2022-11-21T14:00:48.339Z,31.23
2022-11-21T14:03:33.814Z,26.08
2022-11-21T14:06:32.501Z,32.03
2022-11-21T14:09:21.534Z,36.60
2022-11-21T14:11:49.972Z,28.30
2022-11-21T14:14:34.687Z,31.58
2022-11-21T14:17:27.938Z,29.55
2022-11-21T14:19:57.469Z,29.45
2022-11-21T14:22:44.985Z,26.17
2022-11-21T14:25:20.757Z,27.83
2022-11-21T14:27:51.403Z,31.13
2022-11-21T14:30:28.372Z,25.65
2022-11-21T14:32:55.094Z,25.60
2022-11-21T14:35:25.011Z,28.50
2022-11-21T14:37:53.462Z,23.40
2022-11-21T14:40:25.175Z,29.85
2022-11-21T14:42:51.892Z,30.58
2022-11-21T14:45:22.013Z,24.83
2022-11-21T14:47:55.888Z,26.08
2022-11-21T14:50:33.864Z,26.05
2022-11-21T14:53:01.690Z,27.88
2022-11-21T14:55:31.654Z,26.00
2022-11-21T14:58:02.143Z,27.85
2022-11-21T15:00:58.142Z,27.15
2022-11-21T15:03:22.999Z,27.45
2022-11-21T15:06:08.265Z,28.77
2022-11-21T15:11:30.645Z,26.97
2022-11-21T15:14:17.707Z,23.63
2022-11-21T15:16:47.286Z,27.00
2022-11-21T15:19:20.959Z,27.00
2022-11-21T15:21:48.676Z,30.45
2022-11-21T15:24:42.611Z,31.23
2022-11-21T15:27:28.067Z,27.10
2022-11-21T15:30:06.857Z,25.30
2022-11-21T15:32:33.486Z,27.53
2022-11-21T15:35:00.338Z,29.73
2022-11-21T15:37:27.762Z,28.03
2022-11-21T15:39:54.558Z,50.67
2022-11-21T15:42:33.953Z,36.60
2022-11-21T15:45:20.141Z,30.27
2022-11-21T15:47:47.555Z,30.37
2022-11-21T15:50:15.034Z,33.37
2022-11-21T15:52:49.560Z,32.07
2022-11-21T15:55:26.497Z,32.83
2022-11-21T15:57:53.174Z,34.70
2022-11-21T16:00:20.043Z,32.63
2022-11-21T16:02:47.424Z,35.65
2022-11-21T16:05:15.778Z,34.22
2022-11-21T16:07:42.876Z,33.80
2022-11-21T16:10:19.460Z,35.97
2022-11-21T16:12:48.188Z,36.53
2022-11-21T16:15:15.277Z,36.72
2022-11-21T16:17:44.678Z,37.13
2022-11-21T16:20:11.573Z,38.22
2022-11-21T16:22:42.689Z,35.40
2022-11-21T16:25:12.564Z,35.00
2022-11-21T16:27:39.250Z,31.70
2022-11-21T16:30:07.694Z,32.60
2022-11-21T16:32:34.339Z,34.38
2022-11-21T16:35:00.972Z,28.67
2022-11-21T16:37:27.685Z,28.27
2022-11-21T16:39:54.320Z,32.05
2022-11-21T16:42:21.051Z,43.22
2022-11-21T16:44:48.098Z,42.17
2022-11-21T16:47:15.554Z,41.97
2022-11-21T16:49:48.001Z,34.45
2022-11-21T16:52:15.817Z,31.60
2022-11-21T16:54:42.500Z,49.83
2022-11-21T16:57:09.497Z,63.20
2022-11-21T16:59:36.152Z,71.38
2022-11-21T17:02:02.937Z,41.72
2022-11-21T17:04:29.811Z,47.60
2022-11-21T17:06:56.818Z,42.70
2022-11-21T17:09:23.533Z,46.47
2022-11-21T17:11:50.174Z,51.17
2022-11-21T17:14:16.903Z,83.47
2022-11-21T17:16:43.605Z,119.80
2022-11-21T17:19:11.995Z,92.07
2022-11-21T17:21:38.745Z,49.42
2022-11-21T17:24:05.660Z,39.78
2022-11-21T17:26:35.987Z,31.23
2022-11-21T17:29:05.507Z,31.15
2022-11-21T17:31:32.667Z,25.87
2022-11-21T17:34:00.879Z,28.73
2022-11-21T17:36:30.055Z,26.38
2022-11-21T17:38:57.019Z,30.50
2022-11-21T17:41:25.271Z,30.08
2022-11-21T17:43:56.756Z,30.50
2022-11-21T17:46:25.486Z,28.30
2022-11-21T17:48:57.685Z,32.13
2022-11-21T17:51:33.195Z,31.23
2022-11-21T17:54:01.306Z,32.13
2022-11-21T17:56:30.978Z,31.83
2022-11-21T17:58:57.844Z,27.90
2022-11-21T18:01:24.939Z,32.47
2022-11-21T18:03:57.490Z,30.55
2022-11-21T18:06:25.972Z,31.45
2022-11-21T18:08:52.754Z,28.52
2022-11-21T18:11:21.418Z,31.67
2022-11-21T18:13:49.343Z,41.43
2022-11-21T18:16:24.720Z,32.10
2022-11-21T18:18:51.570Z,34.83
2022-11-21T18:21:21.151Z,31.85
2022-11-21T18:23:48.895Z,31.00
2022-11-21T18:26:21.604Z,27.70
2022-11-21T18:29:01.758Z,27.33
2022-11-21T18:31:36.740Z,28.88
2022-11-21T18:34:05.360Z,28.53
2022-11-21T18:36:32.840Z,27.73
2022-11-21T18:39:07.293Z,27.87
2022-11-21T18:41:36.736Z,27.45
2022-11-21T18:44:08.170Z,27.15
2022-11-21T18:46:37.037Z,29.65
2022-11-21T18:49:08.282Z,26.55
2022-11-21T18:55:02.199Z,32.10
2022-11-21T18:57:34.761Z,31.42
2022-11-21T19:00:04.107Z,35.13
2022-11-21T19:02:33.191Z,32.13
2022-11-21T19:05:06.102Z,30.60
2022-11-21T19:07:43.621Z,33.28
2022-11-21T19:12:57.540Z,30.77
2022-11-21T19:15:24.421Z,30.45
2022-11-21T19:17:57.031Z,30.67
2022-11-21T19:20:34.166Z,32.47
2022-11-21T19:23:01.247Z,32.25
2022-11-21T19:25:28.031Z,32.22
2022-11-21T19:27:59.027Z,31.25
2022-11-21T19:30:31.532Z,32.28
2022-11-21T19:32:59.303Z,32.63
2022-11-21T19:35:26.331Z,34.28
2022-11-21T19:38:01.881Z,40.78
2022-11-21T19:40:50.140Z,35.67
2022-11-21T19:43:17.018Z,34.83
2022-11-21T19:45:44.788Z,33.40
2022-11-21T19:48:11.590Z,33.05
2022-11-21T19:50:38.487Z,32.30
2022-11-21T19:53:05.412Z,36.92
2022-11-21T19:55:32.599Z,33.03
2022-11-21T19:57:59.397Z,33.05
2022-11-21T20:00:26.218Z,35.92
2022-11-21T20:02:53.133Z,35.55
2022-11-21T20:05:20.109Z,37.72
2022-11-21T20:07:47.003Z,34.47
2022-11-21T20:10:19.576Z,35.97
2022-11-21T20:12:48.389Z,36.72
2022-11-21T20:15:15.145Z,37.35
2022-11-21T20:17:41.895Z,36.25
2022-11-21T20:20:09.137Z,35.35
2022-11-21T20:22:36.566Z,35.92
2022-11-21T20:25:03.328Z,38.50
2022-11-21T20:27:30.924Z,39.60
2022-11-21T20:29:57.572Z,35.33
2022-11-21T20:32:27.560Z,34.83
2022-11-21T20:34:54.795Z,34.90
2022-11-21T20:37:21.470Z,34.53
2022-11-21T20:39:48.480Z,33.33
2022-11-21T20:42:15.252Z,30.60
2022-11-21T20:45:41.715Z,39.05
2022-11-21T20:47:30.217Z,35.80
2022-11-21T20:49:56.900Z,41.27
2022-11-21T20:55:10.207Z,35.20
2022-11-21T20:57:36.820Z,36.93
2022-11-21T21:00:04.473Z,36.27
2022-11-21T21:02:32.551Z,37.20
2022-11-21T21:04:59.333Z,37.40
2022-11-21T21:07:26.271Z,37.43
2022-11-21T21:09:53.544Z,41.77
2022-11-21T21:12:20.215Z,36.87
2022-11-21T21:14:46.925Z,40.20
2022-11-21T21:17:13.812Z,40.53
2022-11-21T21:19:40.538Z,41.60
2022-11-21T21:22:09.058Z,41.70
2022-11-21T21:24:35.760Z,39.17
2022-11-21T21:27:02.453Z,40.03
2022-11-21T21:29:29.560Z,45.53
2022-11-21T21:31:56.529Z,40.10
2022-11-21T21:34:23.236Z,39.63
2022-11-21T21:36:51.000Z,39.20
2022-11-21T21:39:21.035Z,37.87
2022-11-21T21:41:48.926Z,40.77
2022-11-21T21:44:16.578Z,38.27
2022-11-21T21:46:43.658Z,41.20
2022-11-21T21:49:10.507Z,41.90
2022-11-21T21:51:37.968Z,38.37
2022-11-21T21:54:04.677Z,39.23
2022-11-21T21:56:31.523Z,44.50
2022-11-21T21:58:58.970Z,38.77
2022-11-21T22:01:28.601Z,35.23
2022-11-21T22:04:00.474Z,41.73
2022-11-21T22:06:29.526Z,32.90
2022-11-21T22:08:56.734Z,38.60
2022-11-21T22:11:31.247Z,34.17
2022-11-21T22:14:01.719Z,34.60
2022-11-21T22:16:29.171Z,37.03
2022-11-21T22:18:56.385Z,34.90
2022-11-21T22:21:33.732Z,39.03
2022-11-21T22:26:52.153Z,36.47
2022-11-21T22:29:18.855Z,29.87
2022-11-21T22:31:45.486Z,33.87
2022-11-21T22:34:15.633Z,35.60
2022-11-21T22:36:42.873Z,35.40
2022-11-21T22:39:09.627Z,36.97
2022-11-21T22:41:36.424Z,38.37
2022-11-21T22:44:03.182Z,38.50
2022-11-21T22:46:31.127Z,40.07
2022-11-21T22:48:59.708Z,39.67
2022-11-21T22:51:29.373Z,38.07
2022-11-21T22:53:56.804Z,38.60
2022-11-21T22:56:25.116Z,36.10
2022-11-21T22:58:52.297Z,38.50
2022-11-21T23:01:24.328Z,38.10
2022-11-21T23:03:51.696Z,36.33
2022-11-21T23:06:19.842Z,39.03
2022-11-21T23:08:47.193Z,38.60
2022-11-21T23:11:16.638Z,39.17
2022-11-21T23:13:44.912Z,33.97
2022-11-21T23:16:12.816Z,37.70
2022-11-21T23:18:39.806Z,38.80
2022-11-21T23:21:06.968Z,33.67
2022-11-21T23:23:33.851Z,36.97
2022-11-21T23:26:00.883Z,38.40
2022-11-21T23:28:27.650Z,33.93
2022-11-21T23:30:54.307Z,33.37
2022-11-21T23:33:21.348Z,31.47
2022-11-21T23:35:48.074Z,36.07
2022-11-21T23:38:16.767Z,34.90
2022-11-21T23:40:47.821Z,33.83
2022-11-21T23:43:15.254Z,34.10
2022-11-21T23:45:42.329Z,37.67
2022-11-21T23:48:09.085Z,39.40
2022-11-21T23:50:35.739Z,36.50
2022-11-21T23:53:02.812Z,39.70
2022-11-21T23:55:29.492Z,38.70
2022-11-21T23:57:56.129Z,38.20
